Time,TemperatureF,DewpointF,PressureIn,WindDirection,WindDirectionDegrees,WindSpeedMPH,WindSpeedGustMPH,Humidity,HourlyPrecipIn,Conditions,Clouds,dailyrainin,SoftwareType,DateUTC
2013-01-25 00:00:00,23.7,-19.9,27.76,ENE,78,2.7,2.7,13,0.00,,---,0.00,VWS V14.01,2013-01-25 05:00:00,
2013-01-25 00:01:00,23.7,-19.9,27.76,SE,139,2.7,3.1,13,0.00,,---,0.00,VWS V14.01,2013-01-25 05:01:00,
2013-01-25 00:03:00,23.7,-19.9,27.76,SE,133,3.6,3.6,13,0.00,,---,0.00,VWS V14.01,2013-01-25 05:03:00,
2013-01-25 00:08:00,23.5,-20.1,27.76,SE,145,0.0,0.0,13,0.00,,---,0.00,VWS V14.01,2013-01-25 05:08:00,
2013-01-25 00:13:00,23.5,-20.1,27.76,ESE,108,0.0,0.0,13,0.00,,---,0.00,VWS V14.01,2013-01-25 05:13:00,
2013-01-25 00:18:00,23.5,-20.1,27.76,SSW,195,2.7,3.1,13,0.00,,---,0.00,VWS V14.01,2013-01-25 05:18:00,
2013-01-25 00:23:00,23.4,-20.2,27.76,SE,133,2.7,2.7,13,0.00,,---,0.00,VWS V14.01,2013-01-25 05:23:00,
2013-01-25 00:28:00,23.4,-20.2,27.76,ESE,123,4.0,5.4,13,0.00,,---,0.00,VWS V14.01,2013-01-25 05:28:00,
2013-01-25 00:33:00,23.2,-20.4,27.76,ESE,119,3.1,4.0,13,0.00,,---,0.00,VWS V14.01,2013-01-25 05:33:00,
2013-01-25 00:38:00,23.2,-20.4,27.76,ESE,120,5.4,5.4,13,0.00,,---,0.00,VWS V14.01,2013-01-25 05:38:00,
2013-01-25 00:43:00,23.2,-20.4,27.76,SE,146,0.0,0.0,13,0.00,,---,0.00,VWS V14.01,2013-01-25 05:43:00,
2013-01-25 00:48:00,23.0,-19.1,27.76,SSE,156,0.0,0.0,14,0.00,,---,0.00,VWS V14.01,2013-01-25 05:48:00,
2013-01-25 00:53:00,23.0,-19.1,27.76,SE,133,5.4,5.4,14,0.00,,---,0.00,VWS V14.01,2013-01-25 05:53:00,
2013-01-25 00:58:00,22.8,-19.2,27.76,East,79,2.7,4.0,14,0.00,,---,0.00,VWS V14.01,2013-01-25 05:58:00,
2013-01-25 01:03:00,22.8,-19.2,27.76,NE,34,0.0,0.0,14,0.00,,---,0.00,VWS V14.01,2013-01-25 06:03:00,
2013-01-25 01:08:00,22.8,-19.2,27.76,NE,42,0.0,0.0,14,0.00,,---,0.00,VWS V14.01,2013-01-25 06:08:00,
2013-01-25 01:13:00,22.8,-19.2,27.76,NE,48,0.0,0.0,14,0.00,,---,0.00,VWS V14.01,2013-01-25 06:13:00,
2013-01-25 01:18:00,22.6,-19.4,27.76,SE,136,2.7,2.7,14,0.00,,---,0.00,VWS V14.01,2013-01-25 06:18:00,
2013-01-25 01:23:00,22.6,-19.4,27.76,East,99,0.0,0.0,14,0.00,,---,0.00,VWS V14.01,2013-01-25 06:23:00,
2013-01-25 01:28:00,22.5,-19.5,27.76,South,177,2.2,3.1,14,0.00,,---,0.00,VWS V14.01,2013-01-25 06:28:00,
2013-01-25 01:33:00,22.5,-19.5,27.76,West,263,2.7,2.7,14,0.00,,---,0.00,VWS V14.01,2013-01-25 06:33:00,
2013-01-25 01:38:00,22.5,-19.5,27.76,SSE,149,2.7,2.7,14,0.00,,---,0.00,VWS V14.01,2013-01-25 06:38:00,
2013-01-25 01:43:00,22.5,-19.5,27.76,East,101,0.0,0.0,14,0.00,,---,0.00,VWS V14.01,2013-01-25 06:43:00,
2013-01-25 01:48:00,22.3,-19.7,27.76,SE,136,0.0,0.0,14,0.00,,---,0.00,VWS V14.01,2013-01-25 06:48:00,
2013-01-25 01:53:00,22.1,-19.8,27.76,ESE,123,2.7,2.7,14,0.00,,---,0.00,VWS V14.01,2013-01-25 06:53:00,
2013-01-25 01:58:00,21.9,-20.0,27.76,East,91,2.2,2.7,14,0.00,,---,0.00,VWS V14.01,2013-01-25 06:58:00,
2013-01-25 02:03:00,21.9,-20.0,27.76,South,184,2.7,2.7,14,0.00,,---,0.00,VWS V14.01,2013-01-25 07:03:00,
2013-01-25 02:08:00,21.9,-20.0,27.76,East,101,2.7,2.7,14,0.00,,---,0.00,VWS V14.01,2013-01-25 07:08:00,
2013-01-25 02:13:00,21.9,-20.0,27.76,East,101,0.0,0.0,14,0.00,,---,0.00,VWS V14.01,2013-01-25 07:13:00,
2013-01-25 02:18:00,21.9,-20.0,27.76,ENE,61,2.2,2.2,14,0.00,,---,0.00,VWS V14.01,2013-01-25 07:18:00,
2013-01-25 02:23:00,21.9,-20.0,27.73,East,101,4.0,4.0,14,0.00,,---,0.00,VWS V14.01,2013-01-25 07:23:00,
2013-01-25 02:28:00,21.9,-20.0,27.73,ENE,59,2.7,2.7,14,0.00,,---,0.00,VWS V14.01,2013-01-25 07:28:00,
2013-01-25 02:33:00,21.7,-20.1,27.73,East,96,4.9,4.9,14,0.00,,---,0.00,VWS V14.01,2013-01-25 07:33:00,
2013-01-25 02:38:00,21.7,-20.1,27.73,NE,48,3.1,3.1,14,0.00,,---,0.00,VWS V14.01,2013-01-25 07:38:00,
2013-01-25 02:43:00,21.7,-20.1,27.73,ESE,119,2.2,2.2,14,0.00,,---,0.00,VWS V14.01,2013-01-25 07:43:00,
2013-01-25 02:48:00,21.7,-20.1,27.73,SE,127,2.7,2.7,14,0.00,,---,0.00,VWS V14.01,2013-01-25 07:48:00,
2013-01-25 02:53:00,21.9,-20.0,27.73,ESE,122,2.7,2.7,14,0.00,,---,0.00,VWS V14.01,2013-01-25 07:53:00,
2013-01-25 02:58:00,21.9,-20.0,27.73,ESE,104,2.7,3.1,14,0.00,,---,0.00,VWS V14.01,2013-01-25 07:58:00,
2013-01-25 03:03:00,21.9,-20.0,27.73,SSE,159,0.0,0.0,14,0.00,,---,0.00,VWS V14.01,2013-01-25 08:03:00,
2013-01-25 03:08:00,21.9,-20.0,27.73,NE,42,3.1,3.1,14,0.00,,---,0.00,VWS V14.01,2013-01-25 08:08:00,
2013-01-25 03:13:00,21.9,-20.0,27.73,East,95,5.8,6.7,14,0.00,,---,0.00,VWS V14.01,2013-01-25 08:13:00,
2013-01-25 03:18:00,21.9,-20.0,27.73,ESE,104,3.6,3.6,14,0.00,,---,0.00,VWS V14.01,2013-01-25 08:18:00,
2013-01-25 03:23:00,22.1,-19.8,27.73,East,81,3.6,4.0,14,0.00,,---,0.00,VWS V14.01,2013-01-25 08:23:00,
2013-01-25 03:28:00,22.1,-19.8,27.73,SSE,149,5.8,5.8,14,0.00,,---,0.00,VWS V14.01,2013-01-25 08:28:00,
2013-01-25 03:33:00,22.3,-19.7,27.73,SSE,147,3.6,3.6,14,0.00,,---,0.00,VWS V14.01,2013-01-25 08:33:00,
2013-01-25 03:38:00,22.5,-19.5,27.73,SSE,153,0.0,2.7,14,0.00,,---,0.00,VWS V14.01,2013-01-25 08:38:00,
2013-01-25 03:43:00,22.5,-19.5,27.73,South,186,2.7,2.7,14,0.00,,---,0.00,VWS V14.01,2013-01-25 08:43:00,
2013-01-25 03:48:00,22.5,-19.5,27.73,SSE,152,3.1,3.1,14,0.00,,---,0.00,VWS V14.01,2013-01-25 08:48:00,
2013-01-25 03:53:00,22.5,-19.5,27.73,South,169,3.1,4.0,14,0.00,,---,0.00,VWS V14.01,2013-01-25 08:53:00,
2013-01-25 03:58:00,22.6,-19.4,27.73,SE,140,4.9,5.4,14,0.00,,---,0.00,VWS V14.01,2013-01-25 08:58:00,
2013-01-25 04:03:00,22.6,-19.4,27.73,SE,145,6.3,7.6,14,0.00,,---,0.00,VWS V14.01,2013-01-25 09:03:00,
2013-01-25 04:08:00,22.8,-19.2,27.73,SE,139,4.0,5.4,14,0.00,,---,0.00,VWS V14.01,2013-01-25 09:08:00,
2013-01-25 04:13:00,22.8,-19.2,27.73,ESE,118,0.0,0.0,14,0.00,,---,0.00,VWS V14.01,2013-01-25 09:13:00,
2013-01-25 04:18:00,23.0,-19.1,27.73,SSE,163,2.2,2.7,14,0.00,,---,0.00,VWS V14.01,2013-01-25 09:18:00,
2013-01-25 04:23:00,23.2,-20.4,27.70,SSE,147,4.9,4.9,13,0.00,,---,0.00,VWS V14.01,2013-01-25 09:23:00,
2013-01-25 04:28:00,23.2,-20.4,27.70,SSE,159,5.4,5.4,13,0.00,,---,0.00,VWS V14.01,2013-01-25 09:28:00,
2013-01-25 04:33:00,23.2,-20.4,27.70,SE,130,4.9,4.9,13,0.00,,---,0.00,VWS V14.01,2013-01-25 09:33:00,
2013-01-25 04:38:00,23.2,-20.4,27.70,SE,129,5.8,5.8,13,0.00,,---,0.00,VWS V14.01,2013-01-25 09:38:00,
2013-01-25 04:43:00,23.2,-20.4,27.70,SW,232,3.6,4.0,13,0.00,,---,0.00,VWS V14.01,2013-01-25 09:43:00,
2013-01-25 04:48:00,23.2,-20.4,27.70,SSE,151,7.6,8.3,13,0.00,,---,0.00,VWS V14.01,2013-01-25 09:48:00,
2013-01-25 04:53:00,23.2,-20.4,27.70,SE,140,4.5,4.5,13,0.00,,---,0.00,VWS V14.01,2013-01-25 09:53:00,
2013-01-25 04:58:00,23.2,-20.4,27.70,East,83,2.2,2.2,13,0.00,,---,0.00,VWS V14.01,2013-01-25 09:58:00,
2013-01-25 05:03:00,23.0,-19.1,27.70,East,88,4.0,5.8,14,0.00,,---,0.00,VWS V14.01,2013-01-25 10:03:00,
2013-01-25 05:08:00,23.0,-19.1,27.70,East,82,3.1,3.1,14,0.00,,---,0.00,VWS V14.01,2013-01-25 10:08:00,
2013-01-25 05:13:00,23.2,-20.4,27.70,ESE,120,3.1,3.1,13,0.00,,---,0.00,VWS V14.01,2013-01-25 10:13:00,
2013-01-25 05:18:00,23.2,-20.4,27.70,SE,134,4.9,5.4,13,0.00,,---,0.00,VWS V14.01,2013-01-25 10:18:00,
2013-01-25 05:23:00,23.2,-20.4,27.70,WSW,238,3.1,3.1,13,0.00,,---,0.00,VWS V14.01,2013-01-25 10:23:00,
2013-01-25 05:28:00,23.2,-20.4,27.70,SE,137,2.7,2.7,13,0.00,,---,0.00,VWS V14.01,2013-01-25 10:28:00,
2013-01-25 05:33:00,23.2,-20.4,27.70,SSE,155,2.7,2.7,13,0.00,,---,0.00,VWS V14.01,2013-01-25 10:33:00,
2013-01-25 05:38:00,23.4,-20.2,27.70,SE,135,3.6,4.9,13,0.00,,---,0.00,VWS V14.01,2013-01-25 10:38:00,
2013-01-25 05:43:00,23.4,-20.2,27.70,ESE,114,2.7,3.1,13,0.00,,---,0.00,VWS V14.01,2013-01-25 10:43:00,
2013-01-25 05:48:00,23.5,-20.1,27.70,ESE,114,3.6,3.6,13,0.00,,---,0.00,VWS V14.01,2013-01-25 10:48:00,
2013-01-25 05:53:00,23.5,-20.1,27.67,SW,223,0.0,0.0,13,0.00,,---,0.00,VWS V14.01,2013-01-25 10:53:00,
2013-01-25 05:58:00,23.5,-20.1,27.67,ESE,119,4.0,4.0,13,0.00,,---,0.00,VWS V14.01,2013-01-25 10:58:00,
2013-01-25 06:03:00,23.7,-19.9,27.67,ESE,106,5.8,5.8,13,0.00,,---,0.00,VWS V14.01,2013-01-25 11:03:00,
2013-01-25 06:08:00,23.7,-19.9,27.67,ESE,118,3.1,3.1,13,0.00,,---,0.00,VWS V14.01,2013-01-25 11:08:00,
2013-01-25 06:13:00,23.9,-19.8,27.67,ESE,111,4.0,4.0,13,0.00,,---,0.00,VWS V14.01,2013-01-25 11:13:00,
2013-01-25 06:18:00,23.9,-19.8,27.67,SE,140,3.6,3.6,13,0.00,,---,0.00,VWS V14.01,2013-01-25 11:18:00,
2013-01-25 06:23:00,23.7,-19.9,27.67,ENE,70,2.2,2.7,13,0.00,,---,0.00,VWS V14.01,2013-01-25 11:23:00,
2013-01-25 06:28:00,23.5,-20.1,27.67,East,83,3.1,4.0,13,0.00,,---,0.00,VWS V14.01,2013-01-25 11:28:00,
2013-01-25 06:33:00,23.5,-20.1,27.67,SE,124,3.6,3.6,13,0.00,,---,0.00,VWS V14.01,2013-01-25 11:33:00,
2013-01-25 06:38:00,23.5,-20.1,27.67,South,174,3.1,4.0,13,0.00,,---,0.00,VWS V14.01,2013-01-25 11:38:00,
2013-01-25 06:43:00,23.5,-20.1,27.67,SSE,162,4.0,4.0,13,0.00,,---,0.00,VWS V14.01,2013-01-25 11:43:00,
2013-01-25 06:48:00,23.5,-20.1,27.67,ESE,120,5.4,6.7,13,0.00,,---,0.00,VWS V14.01,2013-01-25 11:48:00,
2013-01-25 06:53:00,23.5,-20.1,27.67,ESE,119,6.3,6.3,13,0.00,,---,0.00,VWS V14.01,2013-01-25 11:53:00,
2013-01-25 06:58:00,23.4,-20.2,27.67,ESE,109,4.9,4.9,13,0.00,,---,0.00,VWS V14.01,2013-01-25 11:58:00,
2013-01-25 07:03:00,23.4,-20.2,27.67,ESE,121,6.3,15.4,13,0.00,,---,0.00,VWS V14.01,2013-01-25 12:03:00,
2013-01-25 07:08:00,23.4,-20.2,27.67,SE,139,4.0,4.0,13,0.00,,---,0.00,VWS V14.01,2013-01-25 12:08:00,
2013-01-25 07:13:00,23.4,-20.2,27.67,ESE,118,5.4,5.4,13,0.00,,---,0.00,VWS V14.01,2013-01-25 12:13:00,
2013-01-25 07:18:00,23.4,-20.2,27.67,SE,138,5.4,5.4,13,0.00,,---,0.00,VWS V14.01,2013-01-25 12:18:00,
2013-01-25 07:23:00,23.4,-20.2,27.67,East,88,3.1,3.1,13,0.00,,---,0.00,VWS V14.01,2013-01-25 12:23:00,
2013-01-25 07:28:00,23.4,-20.2,27.67,East,97,8.1,8.1,13,0.00,,---,0.00,VWS V14.01,2013-01-25 12:28:00,
2013-01-25 07:33:00,23.4,-20.2,27.67,East,83,3.1,10.1,13,0.00,,---,0.00,VWS V14.01,2013-01-25 12:33:00,
2013-01-25 07:38:00,23.4,-20.2,27.67,SE,135,3.1,8.7,13,0.00,,---,0.00,VWS V14.01,2013-01-25 12:38:00,
2013-01-25 07:43:00,23.5,-20.1,27.67,SSE,158,3.6,3.6,13,0.00,,---,0.00,VWS V14.01,2013-01-25 12:43:00,
2013-01-25 07:48:00,23.5,-20.1,27.67,SSE,153,2.7,3.6,13,0.00,,---,0.00,VWS V14.01,2013-01-25 12:48:00,
2013-01-25 07:53:00,23.7,-19.9,27.67,WSW,245,0.0,3.6,13,0.00,,---,0.00,VWS V14.01,2013-01-25 12:53:00,
2013-01-25 07:58:00,23.7,-19.9,27.67,ESE,119,4.0,5.4,13,0.00,,---,0.00,VWS V14.01,2013-01-25 12:58:00,
2013-01-25 08:03:00,23.7,-19.9,27.67,ENE,64,8.1,8.1,13,0.00,,---,0.00,VWS V14.01,2013-01-25 13:03:00,
2013-01-25 08:08:00,23.7,-19.9,27.67,East,91,2.7,2.7,13,0.00,,---,0.00,VWS V14.01,2013-01-25 13:08:00,
2013-01-25 08:13:00,23.7,-19.9,27.67,East,87,4.9,6.3,13,0.00,,---,0.00,VWS V14.01,2013-01-25 13:13:00,
2013-01-25 08:18:00,23.7,-19.9,27.67,East,89,3.6,3.6,13,0.00,,---,0.00,VWS V14.01,2013-01-25 13:18:00,
2013-01-25 08:23:00,23.7,-19.9,27.67,ESE,117,6.3,10.1,13,0.00,,---,0.00,VWS V14.01,2013-01-25 13:23:00,
2013-01-25 08:28:00,23.7,-19.9,27.67,ENE,62,4.0,7.6,13,0.00,,---,0.00,VWS V14.01,2013-01-25 13:28:00,
2013-01-25 08:33:00,23.7,-19.9,27.67,SE,144,8.7,8.7,13,0.00,,---,0.00,VWS V14.01,2013-01-25 13:33:00,
2013-01-25 08:38:00,23.7,-19.9,27.64,ESE,108,2.7,5.8,13,0.00,,---,0.00,VWS V14.01,2013-01-25 13:38:00,
2013-01-25 08:43:00,23.7,-19.9,27.64,SE,127,4.0,4.0,13,0.00,,---,0.00,VWS V14.01,2013-01-25 13:43:00,
2013-01-25 08:48:00,23.9,-19.8,27.64,SE,132,4.9,6.3,13,0.00,,---,0.00,VWS V14.01,2013-01-25 13:48:00,
2013-01-25 08:53:00,23.7,-19.9,27.64,SW,227,8.1,8.1,13,0.00,,---,0.00,VWS V14.01,2013-01-25 13:53:00,
2013-01-25 08:58:00,23.7,-19.9,27.64,SE,138,5.4,5.4,13,0.00,,---,0.00,VWS V14.01,2013-01-25 13:58:00,
2013-01-25 09:03:00,23.7,-19.9,27.64,SE,134,7.6,7.6,13,0.00,,---,0.00,VWS V14.01,2013-01-25 14:03:00,
2013-01-25 09:08:00,23.7,-19.9,27.64,East,100,6.3,6.3,13,0.00,,---,0.00,VWS V14.01,2013-01-25 14:08:00,
2013-01-25 09:13:00,23.5,-20.1,27.64,SE,136,8.3,10.5,13,0.00,,---,0.00,VWS V14.01,2013-01-25 14:13:00,
2013-01-25 09:18:00,23.5,-20.1,27.64,SW,215,3.6,3.6,13,0.00,,---,0.00,VWS V14.01,2013-01-25 14:18:00,
2013-01-25 09:23:00,23.5,-20.1,27.64,ESE,106,10.1,10.1,13,0.00,,---,0.00,VWS V14.01,2013-01-25 14:23:00,
2013-01-25 09:28:00,23.5,-20.1,27.64,SE,139,7.6,7.6,13,0.00,,---,0.00,VWS V14.01,2013-01-25 14:28:00,
2013-01-25 09:33:00,23.5,-20.1,27.64,SSE,149,3.1,5.8,13,0.00,,---,0.00,VWS V14.01,2013-01-25 14:33:00,
2013-01-25 09:38:00,23.5,-20.1,27.64,SE,137,3.6,4.9,13,0.00,,---,0.00,VWS V14.01,2013-01-25 14:38:00,
2013-01-25 09:43:00,23.5,-18.6,27.64,ESE,120,4.9,4.9,14,0.00,,---,0.00,VWS V14.01,2013-01-25 14:43:00,
2013-01-25 09:48:00,23.5,-18.6,27.64,SE,140,3.6,8.1,14,0.00,,---,0.00,VWS V14.01,2013-01-25 14:48:00,
2013-01-25 09:53:00,23.7,-18.5,27.64,SE,138,5.8,5.8,14,0.00,,---,0.00,VWS V14.01,2013-01-25 14:53:00,
2013-01-25 09:58:00,23.9,-18.4,27.64,SSE,161,3.1,3.6,14,0.00,,---,0.00,VWS V14.01,2013-01-25 14:58:00,
2013-01-25 10:03:00,23.9,-18.4,27.64,SE,145,3.6,10.5,14,0.00,,---,0.00,VWS V14.01,2013-01-25 15:03:00,
2013-01-25 10:08:00,23.7,-18.5,27.64,SE,126,7.6,7.6,14,0.00,,---,0.00,VWS V14.01,2013-01-25 15:08:00,
2013-01-25 10:13:00,23.7,-18.5,27.64,SE,135,5.4,6.3,14,0.00,,---,0.00,VWS V14.01,2013-01-25 15:13:00,
2013-01-25 10:18:00,23.7,-18.5,27.64,SE,137,2.7,4.9,14,0.00,,---,0.00,VWS V14.01,2013-01-25 15:18:00,
2013-01-25 10:23:00,23.5,-18.6,27.61,South,169,2.2,4.9,14,0.00,,---,0.00,VWS V14.01,2013-01-25 15:23:00,
2013-01-25 10:28:00,23.7,-18.5,27.61,SE,137,4.9,4.9,14,0.00,,---,0.00,VWS V14.01,2013-01-25 15:28:00,
2013-01-25 10:33:00,23.9,-18.4,27.61,South,190,5.8,8.3,14,0.00,,---,0.00,VWS V14.01,2013-01-25 15:33:00,
2013-01-25 10:38:00,24.3,-18.1,27.61,SE,140,6.3,6.3,14,0.00,,---,0.00,VWS V14.01,2013-01-25 15:38:00,
2013-01-25 10:43:00,24.6,-17.8,27.61,SSE,163,3.6,5.8,14,0.00,,---,0.00,VWS V14.01,2013-01-25 15:43:00,
2013-01-25 10:48:00,24.8,-17.6,27.61,SE,125,3.6,4.9,14,0.00,,---,0.00,VWS V14.01,2013-01-25 15:48:00,
2013-01-25 10:53:00,25.2,-17.3,27.61,SSE,157,5.8,5.8,14,0.00,,---,0.00,VWS V14.01,2013-01-25 15:53:00,
2013-01-25 10:58:00,25.5,-17.0,27.61,ESE,114,8.1,10.1,14,0.00,,---,0.00,VWS V14.01,2013-01-25 15:58:00,
2013-01-25 11:03:00,25.7,-16.9,27.61,South,182,4.0,4.0,14,0.00,,---,0.00,VWS V14.01,2013-01-25 16:03:00,
2013-01-25 11:08:00,25.7,-16.9,27.58,ESE,109,8.7,8.7,14,0.00,,---,0.00,VWS V14.01,2013-01-25 16:08:00,
2013-01-25 11:13:00,25.7,-16.9,27.58,North,0,3.6,6.3,14,0.00,,---,0.00,VWS V14.01,2013-01-25 16:13:00,
2013-01-25 11:18:00,25.5,-17.0,27.58,ESE,107,5.8,6.3,14,0.00,,---,0.00,VWS V14.01,2013-01-25 16:18:00,
2013-01-25 11:23:00,25.3,-17.2,27.58,West,260,5.4,6.3,14,0.00,,---,0.00,VWS V14.01,2013-01-25 16:23:00,
2013-01-25 11:28:00,25.5,-17.0,27.58,SSE,152,5.4,7.6,14,0.00,,---,0.00,VWS V14.01,2013-01-25 16:28:00,
2013-01-25 11:33:00,25.7,-16.9,27.58,WSW,242,2.2,4.5,14,0.00,,---,0.00,VWS V14.01,2013-01-25 16:33:00,
2013-01-25 11:38:00,25.9,-16.8,27.58,SE,145,5.4,5.4,14,0.00,,---,0.00,VWS V14.01,2013-01-25 16:38:00,
2013-01-25 11:43:00,26.1,-16.6,27.58,SE,137,5.4,5.8,14,0.00,,---,0.00,VWS V14.01,2013-01-25 16:43:00,
2013-01-25 11:48:00,26.2,-16.5,27.58,SE,132,4.9,7.2,14,0.00,,---,0.00,VWS V14.01,2013-01-25 16:48:00,
2013-01-25 11:53:00,26.4,-16.3,27.55,SE,141,5.4,5.8,14,0.00,,---,0.00,VWS V14.01,2013-01-25 16:53:00,
2013-01-25 11:58:00,26.8,-17.5,27.55,South,182,3.6,4.0,13,0.00,,---,0.00,VWS V14.01,2013-01-25 16:58:00,
2013-01-25 12:03:00,27.1,-17.2,27.55,SW,226,4.0,5.8,13,0.00,,---,0.00,VWS V14.01,2013-01-25 17:03:00,
2013-01-25 12:08:00,27.5,-12.8,27.52,ESE,113,3.6,4.0,16,0.00,,---,0.00,VWS V14.01,2013-01-25 17:08:00,
2013-01-25 12:13:00,27.9,-12.5,27.52,SW,233,3.6,3.6,16,0.00,,---,0.00,VWS V14.01,2013-01-25 17:13:00,
2013-01-25 12:18:00,27.9,-10.1,27.52,SW,216,5.8,5.8,18,0.00,,---,0.00,VWS V14.01,2013-01-25 17:18:00,
2013-01-25 12:23:00,27.9,-10.1,27.52,WSW,245,2.2,4.0,18,0.00,,---,0.00,VWS V14.01,2013-01-25 17:23:00,
2013-01-25 12:28:00,28.0,-6.8,27.52,WSW,246,4.0,4.0,21,0.00,,---,0.00,VWS V14.01,2013-01-25 17:28:00,
2013-01-25 12:33:00,28.0,-5.0,27.52,ESE,122,5.4,6.3,23,0.00,,---,0.00,VWS V14.01,2013-01-25 17:33:00,
2013-01-25 12:38:00,28.0,-5.0,27.52,South,184,2.7,4.5,23,0.00,,---,0.00,VWS V14.01,2013-01-25 17:38:00,
2013-01-25 12:43:00,28.4,-2.1,27.52,WNW,286,7.6,7.6,26,0.00,,---,0.00,VWS V14.01,2013-01-25 17:43:00,
2013-01-25 12:48:00,28.2,-2.2,27.52,SE,141,3.6,3.6,26,0.00,,---,0.00,VWS V14.01,2013-01-25 17:48:00,
2013-01-25 12:53:00,28.2,-2.2,27.52,NE,48,3.1,4.0,26,0.00,,---,0.00,VWS V14.01,2013-01-25 17:53:00,
2013-01-25 12:58:00,28.2,-0.7,27.52,East,99,2.2,2.7,28,0.00,,---,0.00,VWS V14.01,2013-01-25 17:58:00,
2013-01-25 13:03:00,28.6,1.1,27.52,SE,139,2.2,4.0,30,0.00,,---,0.00,VWS V14.01,2013-01-25 18:03:00,
2013-01-25 13:08:00,28.8,-0.2,27.52,NE,50,2.2,2.2,28,0.00,,---,0.00,VWS V14.01,2013-01-25 18:08:00,
2013-01-25 13:13:00,28.9,-0.1,27.52,NE,50,0.0,0.0,28,0.00,,---,0.00,VWS V14.01,2013-01-25 18:13:00,
2013-01-25 13:18:00,29.3,1.7,27.52,East,79,2.2,4.0,30,0.00,,---,0.00,VWS V14.01,2013-01-25 18:18:00,
2013-01-25 13:22:00,29.5,1.9,27.52,ESE,114,0.0,3.1,30,0.00,,---,0.00,VWS V14.01,2013-01-25 18:22:00,
2013-01-25 13:27:00,29.5,1.9,27.52,ESE,108,2.7,2.7,30,0.00,,---,0.00,VWS V14.01,2013-01-25 18:27:00,
2013-01-25 13:33:00,29.8,2.9,27.52,NE,52,3.1,3.1,31,0.00,,---,0.00,VWS V14.01,2013-01-25 18:33:00,
2013-01-25 13:37:00,30.0,3.1,27.49,ENE,70,2.2,2.2,31,0.00,,---,0.00,VWS V14.01,2013-01-25 18:37:00,
2013-01-25 13:42:00,30.2,3.2,27.49,NE,40,3.1,3.1,31,0.00,,---,0.00,VWS V14.01,2013-01-25 18:42:00,
2013-01-25 13:47:00,30.4,3.4,27.49,ESE,108,0.0,0.0,31,0.00,,---,0.00,VWS V14.01,2013-01-25 18:47:00,
2013-01-25 13:52:00,30.2,3.2,27.49,NE,49,4.0,4.0,31,0.00,,---,0.00,VWS V14.01,2013-01-25 18:52:00,
2013-01-25 13:57:00,30.2,3.9,27.49,East,99,2.7,2.7,32,0.00,,---,0.00,VWS V14.01,2013-01-25 18:57:00,
2013-01-25 14:02:00,30.7,4.4,27.49,ENE,74,0.0,0.0,32,0.00,,---,0.00,VWS V14.01,2013-01-25 19:02:00,
2013-01-25 14:07:00,30.9,4.5,27.49,ENE,72,0.0,2.7,32,0.00,,---,0.00,VWS V14.01,2013-01-25 19:07:00,
2013-01-25 14:13:00,31.1,5.4,27.49,NNE,25,2.7,3.6,33,0.00,,---,0.00,VWS V14.01,2013-01-25 19:13:00,
2013-01-25 14:18:00,32.0,7.5,27.49,East,84,0.0,0.0,35,0.00,,---,0.00,VWS V14.01,2013-01-25 19:18:00,
2013-01-25 14:23:00,32.5,7.9,27.46,ENE,63,3.6,4.0,35,0.00,,---,0.00,VWS V14.01,2013-01-25 19:23:00,
2013-01-25 14:28:00,32.7,8.7,27.46,NE,48,2.7,2.7,36,0.00,,---,0.00,VWS V14.01,2013-01-25 19:28:00,
2013-01-25 14:32:00,33.3,9.8,27.46,NE,44,2.2,2.7,37,0.00,,---,0.00,VWS V14.01,2013-01-25 19:32:00,
2013-01-25 14:37:00,33.6,10.1,27.46,ESE,116,0.0,2.2,37,0.00,,---,0.00,VWS V14.01,2013-01-25 19:37:00,
2013-01-25 14:42:00,34.0,10.5,27.46,ENE,78,3.1,4.0,37,0.00,,---,0.00,VWS V14.01,2013-01-25 19:42:00,
2013-01-25 14:47:00,34.2,10.0,27.46,East,86,0.0,2.2,36,0.00,,---,0.00,VWS V14.01,2013-01-25 19:47:00,
2013-01-25 14:52:00,34.0,9.2,27.43,ENE,66,0.0,2.7,35,0.00,,---,0.00,VWS V14.01,2013-01-25 19:52:00,
2013-01-25 14:57:00,33.6,8.9,27.43,ESE,118,0.0,0.0,35,0.00,,---,0.00,VWS V14.01,2013-01-25 19:57:00,
2013-01-25 15:02:00,33.3,8.6,27.43,ESE,111,0.0,0.0,35,0.00,,---,0.00,VWS V14.01,2013-01-25 20:02:00,
2013-01-25 15:07:00,33.1,8.4,27.46,NE,50,0.0,0.0,35,0.00,,---,0.00,VWS V14.01,2013-01-25 20:07:00,
2013-01-25 15:12:00,33.1,9.1,27.46,NE,41,0.0,3.1,36,0.00,,---,0.00,VWS V14.01,2013-01-25 20:12:00,
2013-01-25 15:17:00,32.9,8.9,27.46,ESE,119,6.3,6.3,36,0.00,,---,0.00,VWS V14.01,2013-01-25 20:17:00,
2013-01-25 15:22:00,32.7,9.3,27.43,NE,40,0.0,2.2,37,0.00,,---,0.00,VWS V14.01,2013-01-25 20:22:00,
2013-01-25 15:27:00,32.5,9.2,27.43,ENE,71,0.0,2.2,37,0.00,,---,0.00,VWS V14.01,2013-01-25 20:27:00,
2013-01-25 15:32:00,32.5,9.8,27.43,NNE,23,2.7,3.1,38,0.00,,---,0.00,VWS V14.01,2013-01-25 20:32:00,
2013-01-25 15:37:00,32.5,10.4,27.43,NNE,23,0.0,0.0,39,0.00,,---,0.00,VWS V14.01,2013-01-25 20:37:00,
2013-01-25 15:42:00,32.9,11.2,27.43,East,89,2.2,2.7,40,0.00,,---,0.00,VWS V14.01,2013-01-25 20:42:00,
2013-01-25 15:47:00,33.1,11.4,27.43,ENE,76,2.7,3.6,40,0.00,,---,0.00,VWS V14.01,2013-01-25 20:47:00,
2013-01-25 15:52:00,33.3,11.6,27.43,ESE,103,2.7,3.1,40,0.00,,---,0.00,VWS V14.01,2013-01-25 20:52:00,
2013-01-25 15:57:00,33.3,11.6,27.43,East,101,0.0,0.0,40,0.00,,---,0.00,VWS V14.01,2013-01-25 20:57:00,
2013-01-25 16:02:00,33.3,11.6,27.43,ENE,68,0.0,2.2,40,0.00,,---,0.00,VWS V14.01,2013-01-25 21:02:00,
2013-01-25 16:07:00,33.3,11.6,27.43,East,90,0.0,0.0,40,0.00,,---,0.00,VWS V14.01,2013-01-25 21:07:00,
2013-01-25 16:12:00,33.3,11.6,27.43,East,91,0.0,0.0,40,0.00,,---,0.00,VWS V14.01,2013-01-25 21:12:00,
2013-01-25 16:17:00,33.1,11.4,27.43,East,91,0.0,0.0,40,0.00,,---,0.00,VWS V14.01,2013-01-25 21:17:00,
2013-01-25 16:22:00,32.9,11.2,27.43,East,81,0.0,2.7,40,0.00,,---,0.00,VWS V14.01,2013-01-25 21:22:00,
2013-01-25 16:27:00,32.9,11.8,27.43,East,82,3.1,3.1,41,0.00,,---,0.00,VWS V14.01,2013-01-25 21:27:00,
2013-01-25 16:32:00,32.7,11.6,27.43,East,88,0.0,0.0,41,0.00,,---,0.00,VWS V14.01,2013-01-25 21:32:00,
2013-01-25 16:37:00,32.7,11.6,27.43,East,88,0.0,0.0,41,0.00,,---,0.00,VWS V14.01,2013-01-25 21:37:00,
2013-01-25 16:42:00,32.7,11.6,27.43,East,88,0.0,0.0,41,0.00,,---,0.00,VWS V14.01,2013-01-25 21:42:00,
2013-01-25 16:47:00,32.5,11.5,27.43,East,88,0.0,0.0,41,0.00,,---,0.00,VWS V14.01,2013-01-25 21:47:00,
2013-01-25 16:52:00,32.7,11.6,27.43,East,88,0.0,0.0,41,0.00,,---,0.00,VWS V14.01,2013-01-25 21:52:00,
2013-01-25 16:57:00,32.5,11.5,27.43,East,89,0.0,2.7,41,0.00,,---,0.00,VWS V14.01,2013-01-25 21:57:00,
2013-01-25 17:02:00,32.5,11.5,27.43,East,89,0.0,0.0,41,0.00,,---,0.00,VWS V14.01,2013-01-25 22:02:00,
2013-01-25 17:07:00,32.5,11.5,27.40,East,89,0.0,0.0,41,0.00,,---,0.00,VWS V14.01,2013-01-25 22:07:00,
2013-01-25 17:12:00,32.5,11.5,27.40,East,89,0.0,0.0,41,0.00,,---,0.00,VWS V14.01,2013-01-25 22:12:00,
2013-01-25 17:17:00,32.5,11.5,27.40,East,91,2.2,2.2,41,0.00,,---,0.00,VWS V14.01,2013-01-25 22:17:00,
2013-01-25 17:22:00,32.5,11.5,27.40,East,91,0.0,0.0,41,0.00,,---,0.00,VWS V14.01,2013-01-25 22:22:00,
2013-01-25 17:27:00,32.5,11.5,27.40,East,91,0.0,0.0,41,0.00,,---,0.00,VWS V14.01,2013-01-25 22:27:00,
2013-01-25 17:32:00,32.5,12.0,27.40,East,91,0.0,0.0,42,0.00,,---,0.00,VWS V14.01,2013-01-25 22:32:00,
2013-01-25 17:37:00,32.5,12.0,27.43,East,93,0.0,0.0,42,0.00,,---,0.00,VWS V14.01,2013-01-25 22:37:00,
2013-01-25 17:42:00,32.5,12.0,27.43,East,93,0.0,0.0,42,0.00,,---,0.00,VWS V14.01,2013-01-25 22:42:00,
2013-01-25 17:47:00,32.5,12.0,27.43,ESE,102,0.0,2.2,42,0.00,,---,0.00,VWS V14.01,2013-01-25 22:47:00,
2013-01-25 17:52:00,32.5,12.0,27.40,ESE,103,0.0,2.2,42,0.00,,---,0.00,VWS V14.01,2013-01-25 22:52:00,
2013-01-25 17:57:00,32.5,12.0,27.40,ESE,104,0.0,0.0,42,0.00,,---,0.00,VWS V14.01,2013-01-25 22:57:00,
2013-01-25 18:02:00,32.5,12.0,27.40,ESE,105,2.2,2.2,42,0.00,,---,0.00,VWS V14.01,2013-01-25 23:02:00,
2013-01-25 18:07:00,32.5,12.0,27.43,ESE,105,0.0,0.0,42,0.00,,---,0.00,VWS V14.01,2013-01-25 23:07:00,
2013-01-25 18:12:00,32.5,12.5,27.43,SE,133,0.0,0.0,43,0.00,,---,0.00,VWS V14.01,2013-01-25 23:12:00,
2013-01-25 18:17:00,32.5,12.5,27.43,SE,133,0.0,0.0,43,0.00,,---,0.00,VWS V14.01,2013-01-25 23:17:00,
2013-01-25 18:22:00,32.5,12.5,27.43,SSE,164,0.0,0.0,43,0.00,,---,0.00,VWS V14.01,2013-01-25 23:22:00,
2013-01-25 18:27:00,32.5,12.5,27.43,SSE,164,0.0,0.0,43,0.00,,---,0.00,VWS V14.01,2013-01-25 23:27:00,
2013-01-25 18:32:00,32.5,12.5,27.43,SSE,164,0.0,0.0,43,0.00,,---,0.00,VWS V14.01,2013-01-25 23:32:00,
2013-01-25 18:37:00,32.5,12.5,27.43,SSE,164,0.0,0.0,43,0.00,,---,0.00,VWS V14.01,2013-01-25 23:37:00,
2013-01-25 18:42:00,32.5,12.5,27.43,SSE,164,0.0,0.0,43,0.00,,---,0.00,VWS V14.01,2013-01-25 23:42:00,
2013-01-25 18:47:00,32.5,12.5,27.43,SSE,164,0.0,0.0,43,0.00,,---,0.00,VWS V14.01,2013-01-25 23:47:00,
2013-01-25 18:52:00,32.5,12.5,27.43,SE,127,0.0,3.1,43,0.00,,---,0.00,VWS V14.01,2013-01-25 23:52:00,
2013-01-25 18:57:00,32.5,13.1,27.43,NNW,340,0.0,2.7,44,0.00,,---,0.00,VWS V14.01,2013-01-25 23:57:00,
2013-01-25 19:02:00,32.5,13.1,27.43,ESE,118,0.0,0.0,44,0.00,,---,0.00,VWS V14.01,2013-01-26 00:02:00,
2013-01-25 19:07:00,32.5,13.1,27.43,SE,128,2.7,3.6,44,0.00,,---,0.00,VWS V14.01,2013-01-26 00:07:00,
2013-01-25 19:12:00,32.7,13.2,27.43,ESE,107,0.0,0.0,44,0.00,,---,0.00,VWS V14.01,2013-01-26 00:12:00,
2013-01-25 19:17:00,32.9,13.9,27.43,ESE,117,0.0,5.4,45,0.00,,---,0.00,VWS V14.01,2013-01-26 00:17:00,
2013-01-25 19:22:00,33.1,14.1,27.43,SE,129,2.7,2.7,45,0.00,,---,0.00,VWS V14.01,2013-01-26 00:22:00,
2013-01-25 19:27:00,33.3,14.7,27.43,ESE,103,3.6,6.3,46,0.00,,---,0.00,VWS V14.01,2013-01-26 00:27:00,
2013-01-25 19:32:00,33.4,14.9,27.43,SE,143,3.6,5.4,46,0.00,,---,0.00,VWS V14.01,2013-01-26 00:32:00,
2013-01-25 19:37:00,33.4,14.9,27.43,SW,226,2.2,2.7,46,0.00,,---,0.00,VWS V14.01,2013-01-26 00:37:00,
2013-01-25 19:42:00,33.6,15.1,27.43,ESE,109,4.9,4.9,46,0.00,,---,0.00,VWS V14.01,2013-01-26 00:42:00,
2013-01-25 19:47:00,33.6,15.1,27.43,ESE,114,3.6,4.0,46,0.00,,---,0.00,VWS V14.01,2013-01-26 00:47:00,
2013-01-25 19:52:00,33.6,15.6,27.43,SE,140,3.1,4.0,47,0.00,,---,0.00,VWS V14.01,2013-01-26 00:52:00,
2013-01-25 19:57:00,33.6,15.6,27.43,ESE,122,4.0,4.0,47,0.00,,---,0.00,VWS V14.01,2013-01-26 00:57:00,
2013-01-25 20:02:00,33.8,15.7,27.43,East,94,4.0,4.0,47,0.00,,---,0.00,VWS V14.01,2013-01-26 01:02:00,
2013-01-25 20:07:00,33.8,15.7,27.43,SE,131,2.7,2.7,47,0.00,,---,0.00,VWS V14.01,2013-01-26 01:07:00,
2013-01-25 20:12:00,33.8,15.7,27.43,South,186,0.0,2.7,47,0.00,,---,0.00,VWS V14.01,2013-01-26 01:12:00,
2013-01-25 20:17:00,33.8,16.2,27.43,East,95,0.0,3.1,48,0.00,,---,0.00,VWS V14.01,2013-01-26 01:17:00,
2013-01-25 20:22:00,34.0,16.4,27.46,SW,222,2.7,2.7,48,0.00,,---,0.00,VWS V14.01,2013-01-26 01:22:00,
2013-01-25 20:27:00,34.0,16.4,27.46,SE,130,5.4,6.3,48,0.00,,---,0.00,VWS V14.01,2013-01-26 01:27:00,
2013-01-25 20:32:00,34.0,16.4,27.46,ESE,122,3.1,3.1,48,0.00,,---,0.00,VWS V14.01,2013-01-26 01:32:00,
2013-01-25 20:37:00,34.2,17.0,27.46,ESE,120,0.0,0.0,49,0.00,,---,0.00,VWS V14.01,2013-01-26 01:37:00,
2013-01-25 20:42:00,34.2,17.0,27.46,SSE,155,2.7,3.1,49,0.00,,---,0.00,VWS V14.01,2013-01-26 01:42:00,
2013-01-25 20:47:00,34.2,17.0,27.46,SSE,155,0.0,0.0,49,0.00,,---,0.00,VWS V14.01,2013-01-26 01:47:00,
2013-01-25 20:52:00,34.2,17.0,27.46,SW,224,0.0,0.0,49,0.00,,---,0.00,VWS V14.01,2013-01-26 01:52:00,
2013-01-25 20:57:00,34.0,16.8,27.46,SW,224,0.0,0.0,49,0.00,,---,0.00,VWS V14.01,2013-01-26 01:57:00,
2013-01-25 21:02:00,34.0,16.8,27.46,SSE,163,0.0,0.0,49,0.00,,---,0.00,VWS V14.01,2013-01-26 02:02:00,
2013-01-25 21:07:00,34.0,16.8,27.46,East,95,0.0,2.2,49,0.00,,---,0.00,VWS V14.01,2013-01-26 02:07:00,
2013-01-25 21:12:00,34.0,16.8,27.46,East,96,0.0,0.0,49,0.00,,---,0.00,VWS V14.01,2013-01-26 02:12:00,
2013-01-25 21:17:00,34.0,16.8,27.46,East,96,0.0,0.0,49,0.00,,---,0.00,VWS V14.01,2013-01-26 02:17:00,
2013-01-25 21:22:00,34.0,16.8,27.46,SE,125,0.0,0.0,49,0.00,,---,0.00,VWS V14.01,2013-01-26 02:22:00,
2013-01-25 21:27:00,33.8,17.1,27.46,SE,125,0.0,0.0,50,0.00,,---,0.00,VWS V14.01,2013-01-26 02:27:00,
2013-01-25 21:32:00,33.8,17.1,27.46,SE,125,0.0,0.0,50,0.00,,---,0.00,VWS V14.01,2013-01-26 02:32:00,
2013-01-25 21:37:00,33.8,17.1,27.46,NW,312,2.2,2.7,50,0.00,,---,0.00,VWS V14.01,2013-01-26 02:37:00,
2013-01-25 21:42:00,33.8,17.1,27.46,NW,312,0.0,0.0,50,0.00,,---,0.00,VWS V14.01,2013-01-26 02:42:00,
2013-01-25 21:47:00,33.8,17.1,27.46,NW,312,0.0,0.0,50,0.00,,---,0.00,VWS V14.01,2013-01-26 02:47:00,
2013-01-25 21:52:00,33.8,17.1,27.46,NW,312,0.0,0.0,50,0.00,,---,0.00,VWS V14.01,2013-01-26 02:52:00,
2013-01-25 21:57:00,33.8,17.1,27.46,NW,312,0.0,0.0,50,0.00,,---,0.00,VWS V14.01,2013-01-26 02:57:00,
2013-01-25 22:02:00,33.8,17.1,27.46,NW,312,0.0,0.0,50,0.00,,---,0.00,VWS V14.01,2013-01-26 03:02:00,
2013-01-25 22:07:00,33.8,17.1,27.46,NW,312,0.0,0.0,50,0.00,,---,0.00,VWS V14.01,2013-01-26 03:07:00,
2013-01-25 22:12:00,34.0,17.8,27.46,NW,312,0.0,0.0,51,0.00,,---,0.00,VWS V14.01,2013-01-26 03:12:00,
2013-01-25 22:17:00,34.0,17.8,27.46,NW,307,0.0,0.0,51,0.00,,---,0.00,VWS V14.01,2013-01-26 03:17:00,
2013-01-25 22:22:00,34.2,17.9,27.46,NW,310,0.0,0.0,51,0.00,,---,0.00,VWS V14.01,2013-01-26 03:22:00,
2013-01-25 22:27:00,34.3,18.1,27.46,NW,310,0.0,0.0,51,0.00,,---,0.00,VWS V14.01,2013-01-26 03:27:00,
2013-01-25 22:32:00,34.3,18.1,27.46,NW,310,0.0,0.0,51,0.00,,---,0.00,VWS V14.01,2013-01-26 03:32:00,
2013-01-25 22:37:00,34.5,18.3,27.46,NW,324,0.0,0.0,51,0.00,,---,0.00,VWS V14.01,2013-01-26 03:37:00,
2013-01-25 22:42:00,34.7,18.9,27.46,SE,131,0.0,0.0,52,0.00,,---,0.00,VWS V14.01,2013-01-26 03:42:00,
2013-01-25 22:47:00,34.7,18.9,27.46,NNE,23,2.7,3.1,52,0.00,,---,0.00,VWS V14.01,2013-01-26 03:47:00,
2013-01-25 22:52:00,34.5,18.7,27.46,NNE,23,0.0,0.0,52,0.00,,---,0.00,VWS V14.01,2013-01-26 03:52:00,
2013-01-25 22:57:00,34.7,18.9,27.46,NNE,23,0.0,0.0,52,0.00,,---,0.00,VWS V14.01,2013-01-26 03:57:00,
2013-01-25 23:02:00,34.9,19.1,27.46,NNE,23,0.0,0.0,52,0.00,,---,0.00,VWS V14.01,2013-01-26 04:02:00,
2013-01-25 23:07:00,34.9,19.1,27.46,North,9,0.0,0.0,52,0.00,,---,0.00,VWS V14.01,2013-01-26 04:07:00,
2013-01-25 23:12:00,35.1,19.7,27.46,West,264,0.0,0.0,53,0.00,,---,0.00,VWS V14.01,2013-01-26 04:12:00,
2013-01-25 23:17:00,35.1,19.7,27.46,West,264,0.0,0.0,53,0.00,,---,0.00,VWS V14.01,2013-01-26 04:17:00,
2013-01-25 23:22:00,35.2,19.8,27.46,West,277,0.0,0.0,53,0.00,,---,0.00,VWS V14.01,2013-01-26 04:22:00,
2013-01-25 23:27:00,35.2,19.8,27.46,SW,227,0.0,2.2,53,0.00,,---,0.00,VWS V14.01,2013-01-26 04:27:00,
2013-01-25 23:32:00,35.4,20.0,27.46,West,267,0.0,0.0,53,0.00,,---,0.00,VWS V14.01,2013-01-26 04:32:00,
2013-01-25 23:37:00,35.2,19.8,27.46,NNE,32,0.0,0.0,53,0.00,,---,0.00,VWS V14.01,2013-01-26 04:37:00,
2013-01-25 23:42:00,35.4,20.0,27.46,NNW,328,0.0,0.0,53,0.00,,---,0.00,VWS V14.01,2013-01-26 04:42:00,
2013-01-25 23:47:00,35.4,20.4,27.46,WNW,297,0.0,0.0,54,0.00,,---,0.00,VWS V14.01,2013-01-26 04:47:00,
2013-01-25 23:52:00,35.4,20.4,27.46,SSW,200,2.7,2.7,54,0.00,,---,0.00,VWS V14.01,2013-01-26 04:52:00,
2013-01-25 23:57:00,35.4,20.4,27.46,SSW,200,0.0,0.0,54,0.00,,---,0.00,VWS V14.01,2013-01-26 04:57:00,